createdAt,value
2017-12-24T00:01:45.714Z,13.13
2017-12-24T00:04:13.338Z,14.37
2017-12-24T00:06:40.915Z,14.67
2017-12-24T00:09:09.243Z,14.50
2017-12-24T00:11:37.587Z,14.47
2017-12-24T00:14:05.188Z,14.30
2017-12-24T00:16:32.788Z,13.57
2017-12-24T00:19:00.464Z,14.50
2017-12-24T00:21:29.541Z,16.47
2017-12-24T00:23:59.324Z,16.10
2017-12-24T00:26:26.864Z,14.40
2017-12-24T00:28:54.418Z,14.23
2017-12-24T00:31:24.580Z,14.43
2017-12-24T00:33:52.240Z,16.03
2017-12-24T00:36:19.780Z,15.10
2017-12-24T00:38:47.340Z,16.37
2017-12-24T00:41:14.884Z,17.53
2017-12-24T00:43:42.419Z,16.13
2017-12-24T00:46:10.741Z,15.67
2017-12-24T00:48:38.281Z,17.10
2017-12-24T00:51:06.612Z,16.30
2017-12-24T00:53:34.235Z,16.40
2017-12-24T00:56:02.566Z,16.70
2017-12-24T00:58:30.107Z,16.70
2017-12-24T01:00:58.429Z,15.77
2017-12-24T01:03:26.025Z,16.53
2017-12-24T01:05:53.620Z,16.90
2017-12-24T01:08:21.164Z,17.47
2017-12-24T01:10:48.750Z,16.43
2017-12-24T01:13:16.300Z,18.20
2017-12-24T01:15:43.864Z,17.13
2017-12-24T01:18:11.402Z,16.60
2017-12-24T01:20:38.972Z,16.87
2017-12-24T01:23:06.555Z,16.40
2017-12-24T01:25:34.096Z,16.83
2017-12-24T01:28:01.653Z,19.47
2017-12-24T01:30:29.204Z,16.53
2017-12-24T01:32:56.760Z,16.60
2017-12-24T01:35:24.296Z,18.20
2017-12-24T01:37:52.616Z,17.63
2017-12-24T01:40:20.151Z,18.53
2017-12-24T01:42:48.482Z,15.83
2017-12-24T01:45:16.020Z,16.37
2017-12-24T01:47:51.099Z,18.37
2017-12-24T01:50:18.640Z,18.23
2017-12-24T01:52:46.200Z,18.77
2017-12-24T01:55:14.508Z,16.30
2017-12-24T01:57:42.105Z,15.93
2017-12-24T02:00:09.644Z,18.10
2017-12-24T02:02:37.195Z,18.00
2017-12-24T02:05:04.763Z,17.43
2017-12-24T02:07:32.309Z,16.87
2017-12-24T02:09:59.862Z,15.93
2017-12-24T02:12:27.404Z,17.20
2017-12-24T02:14:54.968Z,17.60
2017-12-24T02:17:22.516Z,16.80
2017-12-24T02:19:50.077Z,15.93
2017-12-24T02:22:17.607Z,16.63
2017-12-24T02:24:45.180Z,16.50
2017-12-24T02:27:12.722Z,16.13
2017-12-24T02:29:41.057Z,17.80
2017-12-24T02:32:08.620Z,18.20
2017-12-24T02:34:36.191Z,18.13
2017-12-24T02:37:03.739Z,17.07
2017-12-24T02:39:31.285Z,16.60
2017-12-24T02:41:59.670Z,16.63
2017-12-24T02:44:27.186Z,15.77
2017-12-24T02:46:54.744Z,16.50
2017-12-24T02:49:22.288Z,16.03
2017-12-24T02:51:50.610Z,17.70
2017-12-24T02:54:18.186Z,15.83
2017-12-24T02:56:45.748Z,17.20
2017-12-24T02:59:13.296Z,17.50
2017-12-24T03:01:41.632Z,16.70
2017-12-24T03:04:09.177Z,17.50
2017-12-24T03:06:36.768Z,15.97
2017-12-24T03:09:04.320Z,18.60
2017-12-24T03:11:32.696Z,16.60
2017-12-24T03:14:01.005Z,16.97
2017-12-24T03:16:28.548Z,16.63
2017-12-24T03:18:56.130Z,16.67
2017-12-24T03:21:24.439Z,17.30
2017-12-24T03:23:52.001Z,15.87
2017-12-24T03:26:20.629Z,17.17
2017-12-24T03:28:48.241Z,17.63
2017-12-24T03:31:15.779Z,18.00
2017-12-24T03:33:43.340Z,19.50
2017-12-24T03:36:10.886Z,18.20
2017-12-24T03:38:39.213Z,18.73
2017-12-24T03:41:06.768Z,19.00
2017-12-24T03:43:34.329Z,19.83
2017-12-24T03:46:01.882Z,18.17
2017-12-24T03:48:30.213Z,19.47
2017-12-24T03:50:57.758Z,19.07
2017-12-24T03:53:25.324Z,17.50
2017-12-24T03:55:52.907Z,20.20
2017-12-24T03:58:20.452Z,16.43
2017-12-24T04:00:48.789Z,17.90
2017-12-24T04:03:18.251Z,16.53
2017-12-24T04:05:45.821Z,15.23
2017-12-24T04:08:13.364Z,17.10
2017-12-24T04:10:40.928Z,15.47
2017-12-24T04:13:08.468Z,18.23
2017-12-24T04:15:36.037Z,16.87
2017-12-24T04:18:03.575Z,14.33
2017-12-24T04:20:31.136Z,17.17
2017-12-24T04:22:58.679Z,13.63
2017-12-24T04:25:26.237Z,15.90
2017-12-24T04:27:53.850Z,16.87
2017-12-24T04:30:21.400Z,15.40
2017-12-24T04:32:48.945Z,16.10
2017-12-24T04:35:16.489Z,14.40
2017-12-24T04:37:44.820Z,15.97
2017-12-24T04:40:12.365Z,15.97
2017-12-24T04:42:39.932Z,16.03
2017-12-24T04:45:08.288Z,17.47
2017-12-24T04:47:35.923Z,18.10
2017-12-24T04:50:03.469Z,17.83
2017-12-24T04:52:31.029Z,16.83
2017-12-24T04:54:59.336Z,17.40
2017-12-24T04:57:26.897Z,17.63
2017-12-24T04:59:55.205Z,18.10
2017-12-24T05:02:22.772Z,17.43
2017-12-24T05:04:50.314Z,18.50
2017-12-24T05:07:17.879Z,17.70
2017-12-24T05:09:45.437Z,18.53
2017-12-24T05:12:13.021Z,16.40
2017-12-24T05:14:40.569Z,17.27
2017-12-24T05:17:08.113Z,17.93
2017-12-24T05:19:35.674Z,17.83
2017-12-24T05:22:03.221Z,15.37
2017-12-24T05:24:31.556Z,15.57
2017-12-24T05:26:59.105Z,16.73
2017-12-24T05:29:26.674Z,15.80
2017-12-24T05:31:54.217Z,16.77
2017-12-24T05:34:21.785Z,15.20
2017-12-24T05:36:49.331Z,16.20
2017-12-24T05:39:17.666Z,15.20
2017-12-24T05:41:45.971Z,16.10
2017-12-24T05:44:13.545Z,16.70
2017-12-24T05:46:41.084Z,16.80
2017-12-24T05:49:09.389Z,17.40
2017-12-24T05:51:37.720Z,15.40
2017-12-24T05:54:05.261Z,17.60
2017-12-24T05:56:32.841Z,17.87
2017-12-24T05:59:00.393Z,18.87
2017-12-24T06:01:28.720Z,17.83
2017-12-24T06:03:56.281Z,17.60
2017-12-24T06:06:23.874Z,18.20
2017-12-24T06:08:51.418Z,18.23
2017-12-24T06:11:18.981Z,18.13
2017-12-24T06:13:46.520Z,20.23
2017-12-24T06:16:14.080Z,20.90
2017-12-24T06:18:41.622Z,19.00
2017-12-24T06:21:09.213Z,18.47
2017-12-24T06:23:36.765Z,21.40
2017-12-24T06:26:04.341Z,21.13
2017-12-24T06:28:31.912Z,21.20
2017-12-24T06:30:59.456Z,21.77
2017-12-24T06:33:27.020Z,21.77
2017-12-24T06:35:54.562Z,21.03
2017-12-24T06:38:22.129Z,21.20
2017-12-24T06:40:49.672Z,21.07
2017-12-24T06:43:17.232Z,22.43
2017-12-24T06:45:44.784Z,19.90
2017-12-24T06:48:12.346Z,21.30
2017-12-24T06:50:39.892Z,21.77
2017-12-24T06:53:07.461Z,19.70
2017-12-24T06:55:35.004Z,21.63
2017-12-24T06:58:02.564Z,18.90
2017-12-24T07:00:30.108Z,17.30
2017-12-24T07:02:57.675Z,15.87
2017-12-24T07:05:25.221Z,19.80
2017-12-24T07:07:52.762Z,18.60
2017-12-24T07:10:20.362Z,17.20
2017-12-24T07:12:47.904Z,17.70
2017-12-24T07:15:15.464Z,17.43
2017-12-24T07:17:43.005Z,19.13
2017-12-24T07:20:10.580Z,18.97
2017-12-24T07:22:39.017Z,17.57
2017-12-24T07:25:06.580Z,18.40
2017-12-24T07:27:34.298Z,18.13
2017-12-24T07:30:01.866Z,16.20
2017-12-24T07:32:30.182Z,17.53
2017-12-24T07:34:57.744Z,17.87
2017-12-24T07:37:26.049Z,19.17
2017-12-24T07:39:53.589Z,17.53
2017-12-24T07:42:21.925Z,16.80
2017-12-24T07:44:49.468Z,19.40
2017-12-24T07:47:17.050Z,19.67
2017-12-24T07:49:44.596Z,18.10
2017-12-24T07:52:12.929Z,17.13
2017-12-24T07:54:40.478Z,17.00
2017-12-24T07:57:08.038Z,19.03
2017-12-24T07:59:36.350Z,16.20
2017-12-24T08:02:03.916Z,15.10
2017-12-24T08:04:31.454Z,15.53
2017-12-24T08:06:59.781Z,15.43
2017-12-24T08:09:27.360Z,18.17
2017-12-24T08:11:54.929Z,15.87
2017-12-24T08:14:22.520Z,16.90
2017-12-24T08:16:50.097Z,15.93
2017-12-24T08:19:17.664Z,13.83
2017-12-24T08:21:45.310Z,14.93
2017-12-24T08:24:12.874Z,13.90
2017-12-24T08:26:40.419Z,15.47
2017-12-24T08:29:07.981Z,15.50
2017-12-24T08:31:35.557Z,14.93
2017-12-24T08:34:03.210Z,13.80
2017-12-24T08:36:30.851Z,13.87
2017-12-24T08:38:58.454Z,15.00
2017-12-24T08:41:26.006Z,16.00
2017-12-24T08:43:53.600Z,15.10
2017-12-24T08:46:21.937Z,13.73
2017-12-24T08:48:49.500Z,14.07
2017-12-24T08:51:17.805Z,13.17
2017-12-24T08:53:45.364Z,14.60
2017-12-24T08:56:13.718Z,13.20
2017-12-24T08:58:41.284Z,12.63
2017-12-24T09:01:11.244Z,12.13
2017-12-24T09:03:39.704Z,11.67
2017-12-24T09:06:07.288Z,10.30
2017-12-24T09:08:34.836Z,10.80
2017-12-24T09:11:02.408Z,8.77
2017-12-24T09:13:29.954Z,10.50
2017-12-24T09:15:57.542Z,10.10
2017-12-24T09:18:25.104Z,10.50
2017-12-24T09:20:52.680Z,11.00
2017-12-24T09:23:35.059Z,10.20
2017-12-24T09:26:02.650Z,11.20
2017-12-24T09:28:30.211Z,11.17
2017-12-24T09:30:57.792Z,12.20
2017-12-24T09:33:25.343Z,10.10
2017-12-24T09:35:53.642Z,9.83
2017-12-24T09:38:21.264Z,9.77
2017-12-24T09:40:48.828Z,9.67
2017-12-24T09:43:16.628Z,10.03
2017-12-24T09:45:44.172Z,9.47
2017-12-24T09:48:11.724Z,10.53
2017-12-24T09:50:39.264Z,10.93
2017-12-24T09:53:06.917Z,13.00
2017-12-24T09:55:34.507Z,11.60
2017-12-24T09:58:02.514Z,12.07
2017-12-24T10:00:30.870Z,11.20
2017-12-24T10:02:58.504Z,10.83
2017-12-24T10:05:26.324Z,11.67
2017-12-24T10:07:53.937Z,12.17
2017-12-24T10:10:22.248Z,10.20
2017-12-24T10:12:49.833Z,11.20
2017-12-24T10:15:17.387Z,10.00
2017-12-24T10:17:44.923Z,10.30
2017-12-24T10:20:12.504Z,10.67
2017-12-24T10:22:40.820Z,10.50
2017-12-24T10:25:08.384Z,12.00
2017-12-24T10:27:35.927Z,11.73
2017-12-24T10:30:03.484Z,11.10
2017-12-24T10:32:31.037Z,12.30
2017-12-24T10:34:58.624Z,12.97
2017-12-24T10:37:26.176Z,13.80
2017-12-24T10:39:53.744Z,13.80
2017-12-24T10:42:21.303Z,13.20
2017-12-24T10:44:48.878Z,12.67
2017-12-24T10:47:16.432Z,13.37
2017-12-24T10:49:44.004Z,13.27
2017-12-24T10:52:11.540Z,13.27
2017-12-24T10:54:39.126Z,12.33
2017-12-24T10:57:07.440Z,12.03
2017-12-24T10:59:35.645Z,12.10
2017-12-24T11:02:04.126Z,11.87
2017-12-24T11:04:31.684Z,11.93
2017-12-24T11:07:00.013Z,12.70
2017-12-24T11:09:27.615Z,13.20
2017-12-24T11:11:55.195Z,12.43
2017-12-24T11:14:23.528Z,12.53
2017-12-24T11:16:51.100Z,12.67
2017-12-24T11:19:18.672Z,14.13
2017-12-24T11:21:46.241Z,13.57
2017-12-24T11:24:13.784Z,14.07
2017-12-24T11:26:42.113Z,12.00
2017-12-24T11:29:09.658Z,12.10
2017-12-24T11:31:37.257Z,13.60
2017-12-24T11:34:04.823Z,13.10
2017-12-24T11:36:32.429Z,14.97
2017-12-24T11:38:59.978Z,14.27
2017-12-24T11:41:27.607Z,13.80
2017-12-24T11:43:55.941Z,14.80
2017-12-24T11:46:23.665Z,15.07
2017-12-24T11:48:52.017Z,15.73
2017-12-24T11:51:19.562Z,14.40
2017-12-24T11:53:47.191Z,15.10
2017-12-24T11:56:14.708Z,17.00
2017-12-24T11:58:42.272Z,17.67
2017-12-24T12:01:09.808Z,18.60
2017-12-24T12:03:37.380Z,18.83
2017-12-24T12:06:04.964Z,18.70
2017-12-24T12:08:33.306Z,18.73
2017-12-24T12:11:00.849Z,18.37
2017-12-24T12:13:28.423Z,18.50
2017-12-24T12:15:56.002Z,20.27
2017-12-24T12:18:23.577Z,21.20
2017-12-24T12:20:51.149Z,20.10
2017-12-24T12:23:18.726Z,20.57
2017-12-24T12:25:46.273Z,20.07
2017-12-24T12:28:14.692Z,20.13
2017-12-24T12:30:42.298Z,21.30
2017-12-24T12:33:09.841Z,21.70
2017-12-24T12:35:37.405Z,19.03
2017-12-24T12:38:05.049Z,18.37
2017-12-24T12:40:32.953Z,18.97
2017-12-24T12:43:00.664Z,18.53
2017-12-24T12:45:28.232Z,16.63
2017-12-24T12:47:55.783Z,16.73
2017-12-24T12:50:23.359Z,16.43
2017-12-24T12:52:50.901Z,17.43
2017-12-24T12:55:18.473Z,16.10
2017-12-24T12:57:46.032Z,15.73
2017-12-24T13:00:14.352Z,14.57
2017-12-24T13:02:41.922Z,13.40
2017-12-24T13:05:09.528Z,13.20
2017-12-24T13:07:37.125Z,11.40
2017-12-24T13:10:04.769Z,12.60
2017-12-24T13:12:32.567Z,13.10
2017-12-24T13:15:00.150Z,11.83
2017-12-24T13:17:27.921Z,11.73
2017-12-24T13:19:55.821Z,12.40
2017-12-24T13:22:23.432Z,9.90
2017-12-24T13:24:51.005Z,10.17
2017-12-24T13:27:18.581Z,11.30
2017-12-24T13:29:46.278Z,11.50
2017-12-24T13:32:13.900Z,12.63
2017-12-24T13:34:41.648Z,11.73
2017-12-24T13:37:10.075Z,11.07
2017-12-24T13:39:38.726Z,12.23
2017-12-24T13:42:06.268Z,16.00
2017-12-24T13:44:33.899Z,13.33
2017-12-24T13:47:01.501Z,13.47
2017-12-24T13:49:29.586Z,11.67
2017-12-24T13:51:57.691Z,11.20
2017-12-24T13:54:25.405Z,12.13
2017-12-24T13:56:55.142Z,12.97
2017-12-24T13:59:22.853Z,12.20
2017-12-24T14:01:50.424Z,11.53
2017-12-24T14:04:18.013Z,13.87
2017-12-24T14:06:45.574Z,14.70
2017-12-24T14:09:13.176Z,14.10
2017-12-24T14:11:40.721Z,15.73
2017-12-24T14:14:08.284Z,15.60
2017-12-24T14:16:35.839Z,15.93
2017-12-24T14:19:03.392Z,13.73
2017-12-24T14:21:30.989Z,15.03
2017-12-24T14:23:58.757Z,15.37
2017-12-24T14:26:26.525Z,13.13
2017-12-24T14:28:55.052Z,14.53
2017-12-24T14:31:22.628Z,14.43
2017-12-24T14:33:50.229Z,13.43
2017-12-24T14:36:17.836Z,13.13
2017-12-24T14:38:46.236Z,12.13
2017-12-24T14:41:13.801Z,12.97
2017-12-24T14:43:42.160Z,11.50
2017-12-24T14:46:09.752Z,10.03
2017-12-24T14:48:38.084Z,12.17
2017-12-24T14:51:05.660Z,11.70
2017-12-24T14:53:33.316Z,12.90
2017-12-24T14:56:00.881Z,11.90
2017-12-24T14:58:28.442Z,11.60
2017-12-24T15:00:56.751Z,11.93
2017-12-24T15:03:30.624Z,11.70
2017-12-24T15:05:58.212Z,12.23
2017-12-24T15:08:26.547Z,11.43
2017-12-24T15:10:54.111Z,11.70
2017-12-24T15:13:22.461Z,12.30
2017-12-24T15:15:50.970Z,13.57
2017-12-24T15:18:18.579Z,11.10
2017-12-24T15:20:48.080Z,10.00
2017-12-24T15:23:15.644Z,10.50
2017-12-24T15:25:43.183Z,11.50
2017-12-24T15:28:10.739Z,11.00
2017-12-24T15:30:38.292Z,12.50
2017-12-24T15:33:05.845Z,10.47
2017-12-24T15:35:33.410Z,11.63
2017-12-24T15:38:01.029Z,12.07
2017-12-24T15:40:29.710Z,10.33
2017-12-24T15:42:57.284Z,11.43
2017-12-24T15:45:24.912Z,10.97
2017-12-24T15:47:54.758Z,9.30
2017-12-24T15:50:22.698Z,9.17
2017-12-24T15:52:51.569Z,8.80
2017-12-24T15:55:20.057Z,8.67
2017-12-24T15:57:47.681Z,9.13
2017-12-24T16:00:17.064Z,6.70
2017-12-24T16:02:46.193Z,7.30
2017-12-24T16:05:13.757Z,6.83
2017-12-24T16:07:42.645Z,6.73
2017-12-24T16:10:11.165Z,6.40
2017-12-24T16:12:40.122Z,5.43
2017-12-24T16:15:07.759Z,6.53
2017-12-24T16:17:35.335Z,5.70
2017-12-24T16:20:03.760Z,6.43
2017-12-24T16:22:31.399Z,6.20
2017-12-24T16:24:59.107Z,6.17
2017-12-24T16:27:26.652Z,5.70
2017-12-24T16:29:54.231Z,6.13
2017-12-24T16:32:21.760Z,6.60
2017-12-24T16:34:50.130Z,6.60
2017-12-24T16:37:17.783Z,6.43
2017-12-24T16:39:46.194Z,6.10
2017-12-24T16:42:13.994Z,5.43
2017-12-24T16:44:42.374Z,6.00
2017-12-24T16:47:10.005Z,5.60
2017-12-24T16:49:37.558Z,7.00
2017-12-24T16:52:05.885Z,6.93
2017-12-24T16:54:33.430Z,6.07
2017-12-24T16:57:01.061Z,5.90
2017-12-24T16:59:28.681Z,6.50
2017-12-24T17:01:56.323Z,5.40
2017-12-24T17:04:24.688Z,6.40
2017-12-24T17:06:52.324Z,6.00
2017-12-24T17:09:19.921Z,4.60
2017-12-24T17:11:47.526Z,5.30
2017-12-24T17:14:15.932Z,5.27
2017-12-24T17:16:44.237Z,6.00
2017-12-24T17:19:11.795Z,5.80
2017-12-24T17:21:40.215Z,5.70
2017-12-24T17:24:07.905Z,4.47
2017-12-24T17:26:35.603Z,5.97
2017-12-24T17:29:03.241Z,4.80
2017-12-24T17:31:31.797Z,4.87
2017-12-24T17:33:59.463Z,7.00
2017-12-24T17:36:27.839Z,6.00
2017-12-24T17:38:55.479Z,6.60
2017-12-24T17:41:23.095Z,6.50
2017-12-24T17:43:51.555Z,8.10
2017-12-24T17:46:20.039Z,8.27
2017-12-24T17:48:47.679Z,9.40
2017-12-24T17:51:15.335Z,8.77
2017-12-24T17:53:43.775Z,9.40
2017-12-24T17:56:11.348Z,8.90
2017-12-24T17:58:38.881Z,9.07
2017-12-24T18:01:07.281Z,10.70
2017-12-24T18:03:34.894Z,9.10
2017-12-24T18:06:02.530Z,10.10
2017-12-24T18:08:30.141Z,10.10
2017-12-24T18:10:58.076Z,9.07
2017-12-24T18:13:25.716Z,10.50
2017-12-24T18:15:53.380Z,9.50
2017-12-24T18:18:20.998Z,9.37
2017-12-24T18:20:48.638Z,9.33
2017-12-24T18:23:16.288Z,9.50
2017-12-24T18:25:43.860Z,9.40
2017-12-24T18:28:11.392Z,8.93
2017-12-24T18:30:39.682Z,8.50
2017-12-24T18:33:07.990Z,9.73
2017-12-24T18:35:35.528Z,8.70
2017-12-24T18:38:03.860Z,7.37
2017-12-24T18:40:32.165Z,8.10
2017-12-24T18:42:59.867Z,8.73
2017-12-24T18:45:27.481Z,7.83
2017-12-24T18:47:55.046Z,7.90
2017-12-24T18:50:22.593Z,8.00
2017-12-24T18:52:50.925Z,7.10
2017-12-24T18:55:18.648Z,7.43
2017-12-24T18:57:47.052Z,8.17
2017-12-24T19:00:14.602Z,7.33
2017-12-24T19:02:42.349Z,7.13
2017-12-24T19:05:10.109Z,7.17
2017-12-24T19:07:37.717Z,7.97
2017-12-24T19:10:05.451Z,7.17
2017-12-24T19:12:33.190Z,7.33
2017-12-24T19:15:01.649Z,8.03
2017-12-24T19:17:31.301Z,8.00
2017-12-24T19:19:59.689Z,8.17
2017-12-24T19:22:28.150Z,7.73
2017-12-24T19:24:55.750Z,7.07
2017-12-24T19:27:23.296Z,8.50
2017-12-24T19:29:51.170Z,7.63
2017-12-24T19:32:19.101Z,7.73
2017-12-24T19:34:47.818Z,8.87
2017-12-24T19:37:15.717Z,8.10
2017-12-24T19:39:43.459Z,8.80
2017-12-24T19:42:11.034Z,8.77
2017-12-24T19:44:39.603Z,8.70
2017-12-24T19:47:08.177Z,9.10
2017-12-24T19:49:36.742Z,9.00
2017-12-24T19:52:04.462Z,7.83
2017-12-24T19:54:32.354Z,9.73
2017-12-24T19:57:00.183Z,7.80
2017-12-24T19:59:27.964Z,8.90
2017-12-24T20:01:55.715Z,8.30
2017-12-24T20:04:23.469Z,10.00
2017-12-24T20:06:51.310Z,9.10
2017-12-24T20:09:19.009Z,9.73
2017-12-24T20:11:47.592Z,10.13
2017-12-24T20:14:22.143Z,9.13
2017-12-24T20:16:49.953Z,9.83
2017-12-24T20:19:17.519Z,9.97
2017-12-24T20:21:45.853Z,9.70
2017-12-24T20:24:13.410Z,10.87
2017-12-24T20:26:41.893Z,9.13
2017-12-24T20:29:09.478Z,10.67
2017-12-24T20:31:37.054Z,10.47
2017-12-24T20:34:04.601Z,9.73
2017-12-24T20:36:32.176Z,9.90
2017-12-24T20:38:59.731Z,10.70
2017-12-24T20:41:28.199Z,10.40
2017-12-24T20:43:56.029Z,10.73
2017-12-24T20:46:23.788Z,10.50
2017-12-24T20:48:51.582Z,9.53
2017-12-24T20:51:19.486Z,10.53
2017-12-24T20:53:47.218Z,9.60
2017-12-24T20:56:15.009Z,10.13
2017-12-24T20:58:43.618Z,10.43
2017-12-24T21:01:11.205Z,10.23
2017-12-24T21:03:39.022Z,10.60
2017-12-24T21:06:07.462Z,10.90
2017-12-24T21:08:36.008Z,11.13
2017-12-24T21:11:04.515Z,10.90
2017-12-24T21:13:32.403Z,10.20
2017-12-24T21:15:59.978Z,11.03
2017-12-24T21:18:27.548Z,10.30
2017-12-24T21:20:55.133Z,11.90
2017-12-24T21:23:23.467Z,9.87
2017-12-24T21:25:51.010Z,10.70
2017-12-24T21:28:18.557Z,11.53
2017-12-24T21:30:46.129Z,12.10
2017-12-24T21:33:13.673Z,13.03
2017-12-24T21:35:41.237Z,11.90
2017-12-24T21:38:08.780Z,10.40
2017-12-24T21:40:36.350Z,11.80
2017-12-24T21:43:03.894Z,11.80
2017-12-24T21:45:31.464Z,13.17
2017-12-24T21:47:59.004Z,12.77
2017-12-24T21:50:27.337Z,13.47
2017-12-24T21:52:54.889Z,12.97
2017-12-24T21:55:22.456Z,11.67
2017-12-24T21:57:50.002Z,12.60
2017-12-24T22:00:17.544Z,13.00
2017-12-24T22:02:45.117Z,12.50
2017-12-24T22:05:12.889Z,13.10
2017-12-24T22:07:41.476Z,13.37
2017-12-24T22:10:09.158Z,13.23
2017-12-24T22:12:36.939Z,13.20
2017-12-24T22:15:04.702Z,12.70
2017-12-24T22:17:32.496Z,13.40
2017-12-24T22:20:01.053Z,13.20
2017-12-24T22:22:28.843Z,14.17
2017-12-24T22:24:56.825Z,14.37
2017-12-24T22:27:24.565Z,13.57
2017-12-24T22:29:53.424Z,12.50
2017-12-24T22:32:21.527Z,13.60
2017-12-24T22:34:49.452Z,12.30
2017-12-24T22:37:17.149Z,13.70
2017-12-24T22:39:49.436Z,14.53
2017-12-24T22:42:17.226Z,13.80
2017-12-24T22:44:44.854Z,14.77
2017-12-24T22:47:12.641Z,14.10
2017-12-24T22:49:40.472Z,14.50
2017-12-24T22:52:08.987Z,14.50
2017-12-24T22:54:37.469Z,15.63
2017-12-24T22:57:05.802Z,15.83
2017-12-24T22:59:33.404Z,15.37
2017-12-24T23:02:00.945Z,14.83
2017-12-24T23:04:28.594Z,15.57
2017-12-24T23:07:02.162Z,15.77
2017-12-24T23:09:29.859Z,15.10
2017-12-24T23:11:58.328Z,16.40
2017-12-24T23:14:27.149Z,14.40
2017-12-24T23:16:54.745Z,16.57
2017-12-24T23:19:23.972Z,15.13
2017-12-24T23:21:51.605Z,15.13
2017-12-24T23:24:19.177Z,17.60
2017-12-24T23:26:47.528Z,15.90
2017-12-24T23:29:15.076Z,15.70
2017-12-24T23:31:45.793Z,16.00
2017-12-24T23:34:13.484Z,16.77
2017-12-24T23:36:42.017Z,14.20
2017-12-24T23:39:09.636Z,17.07
2017-12-24T23:41:37.728Z,16.83
2017-12-24T23:44:05.272Z,15.80
2017-12-24T23:46:32.931Z,16.33
2017-12-24T23:49:00.505Z,17.17
2017-12-24T23:51:28.116Z,16.20
2017-12-24T23:53:56.474Z,17.50
2017-12-24T23:56:24.118Z,18.87
2017-12-24T23:58:51.709Z,16.77
